Time;durP1;ratioP1;P1;durP2;ratioP2;P2;SDS_P1;SDS_P2;PMS_P1;PMS_P2;Temp;Humidity;BMP_temperature;BMP_pressure;BME280_temperature;BME280_humidity;BME280_pressure;Samples;Min_cycle;Max_cycle;Signal;HPM_P1;HPM_P2
2021/09/05 00:02:12;;;;;;;5.85;5.25;;;;;;;3.62;100.00;99781.69;1689579;84;20964;-70
2021/09/05 00:04:38;;;;;;;7.55;5.45;;;;;;;3.62;100.00;99780.36;1709660;84;21017;-70
2021/09/05 00:07:07;;;;;;;7.22;5.55;;;;;;;3.66;100.00;99784.77;1714775;83;20924;-70
2021/09/05 00:09:35;;;;;;;6.72;5.20;;;;;;;3.71;100.00;99789.48;1738251;81;20922;-70
2021/09/05 00:12:04;;;;;;;6.05;5.00;;;;;;;3.72;100.00;99787.11;1740053;81;20990;-70
2021/09/05 00:14:32;;;;;;;6.97;5.70;;;;;;;3.64;100.00;99788.94;1786951;80;21514;-70
2021/09/05 00:17:00;;;;;;;7.25;5.10;;;;;;;3.59;100.00;99787.92;1803692;78;20991;-70
2021/09/05 00:19:27;;;;;;;6.55;5.62;;;;;;;3.59;100.00;99789.25;1778044;80;21189;-70
2021/09/05 00:21:55;;;;;;;9.08;5.70;;;;;;;3.65;100.00;99791.11;1819184;78;20908;-70
2021/09/05 00:24:22;;;;;;;7.08;5.80;;;;;;;3.73;100.00;99790.09;1819205;78;20937;-69
2021/09/05 00:26:48;;;;;;;7.58;5.33;;;;;;;3.78;100.00;99797.75;1819603;78;20901;-70
2021/09/05 00:29:18;;;;;;;7.08;5.58;;;;;;;3.89;100.00;99800.81;1777966;80;21022;-71
2021/09/05 00:31:45;;;;;;;6.70;5.33;;;;;;;4.02;100.00;99798.98;1819569;78;21096;-70
2021/09/05 00:34:11;;;;;;;6.25;5.28;;;;;;;4.14;100.00;99795.20;1819363;78;20980;-70
2021/09/05 00:36:40;;;;;;;7.12;5.15;;;;;;;4.15;100.00;99803.47;1777922;80;20956;-69
2021/09/05 00:39:09;;;;;;;13.40;5.72;;;;;;;4.08;100.00;99804.79;1819513;78;21608;-70
2021/09/05 00:41:37;;;;;;;9.28;6.10;;;;;;;4.05;100.00;99803.87;1819299;78;20908;-69
2021/09/05 00:44:06;;;;;;;5.58;5.05;;;;;;;4.01;100.00;99803.97;1819325;78;21126;-69
2021/09/05 00:46:36;;;;;;;7.28;5.62;;;;;;;4.00;100.00;99806.34;1819435;78;20888;-71
2021/09/05 00:49:05;;;;;;;13.53;5.53;;;;;;;3.93;100.00;99808.17;1819296;78;21031;-70
2021/09/05 00:51:35;;;;;;;17.07;5.85;;;;;;;3.90;100.00;99809.91;1819715;78;20936;-70
2021/09/05 00:54:07;;;;;;;10.10;5.95;;;;;;;3.92;100.00;99807.88;1819447;78;21521;-70
2021/09/05 00:56:37;;;;;;;10.38;6.37;;;;;;;3.97;100.00;99809.41;1819516;78;21789;-70
2021/09/05 00:59:11;;;;;;;6.53;5.60;;;;;;;3.96;100.00;99809.08;1819126;78;20944;-69
2021/09/05 01:01:37;;;;;;;7.33;6.10;;;;;;;3.93;100.00;99813.48;1819147;78;20932;-71
2021/09/05 01:04:09;;;;;;;7.75;5.62;;;;;;;3.93;100.00;99814.00;1818814;78;21187;-70
2021/09/05 01:06:39;;;;;;;9.08;5.65;;;;;;;3.95;100.00;99814.62;1819222;78;20889;-71
2021/09/05 01:09:08;;;;;;;9.83;5.62;;;;;;;3.90;100.00;99818.40;1767498;80;21133;-69
2021/09/05 01:11:36;;;;;;;7.55;5.55;;;;;;;3.82;100.00;99817.57;1767445;81;20932;-71
2021/09/05 01:14:08;;;;;;;10.32;6.28;;;;;;;3.86;100.00;99817.97;1768080;81;22995;-68
2021/09/05 01:16:41;;;;;;;9.13;5.50;;;;;;;3.90;100.00;99819.20;1767752;81;20935;-69
2021/09/05 01:19:24;;;;;;;6.80;5.50;;;;;;;3.91;100.00;99818.69;1658326;86;21056;-72
2021/09/05 01:22:00;;;;;;;6.05;5.42;;;;;;;3.90;100.00;99824.52;1696870;84;21045;-69
2021/09/05 01:24:49;;;;;;;5.80;5.20;;;;;;;3.86;100.00;99817.45;1643850;86;21043;-71
2021/09/05 01:27:17;;;;;;;7.87;5.35;;;;;;;3.82;100.00;99819.39;1643980;87;21008;-70
2021/09/05 01:30:06;;;;;;;10.03;6.37;;;;;;;3.76;100.00;99820.21;1643925;86;21579;-71
2021/09/05 01:32:51;;;;;;;8.50;5.92;;;;;;;3.70;100.00;99823.66;1643829;86;20952;-71
2021/09/05 01:35:22;;;;;;;8.58;7.03;;;;;;;3.57;100.00;99827.12;1633408;87;21157;-71
2021/09/05 01:38:07;;;;;;;6.92;6.22;;;;;;;3.41;100.00;99835.77;1643732;86;20905;-70
2021/09/05 01:40:48;;;;;;;7.65;6.40;;;;;;;3.26;100.00;99827.64;1643568;87;21523;-70
2021/09/05 01:43:20;;;;;;;8.33;5.45;;;;;;;3.15;100.00;99836.48;1633502;87;21694;-71
2021/09/05 01:46:06;;;;;;;7.65;6.08;;;;;;;3.09;100.00;99837.80;1621809;88;20971;-71
2021/09/05 01:48:38;;;;;;;9.48;5.95;;;;;;;3.06;100.00;99840.31;1618317;88;21650;-71
2021/09/05 01:51:09;;;;;;;8.30;6.75;;;;;;;3.03;100.00;99842.05;1617717;88;20999;-72
2021/09/05 01:53:53;;;;;;;8.90;5.58;;;;;;;2.99;100.00;99842.15;1655111;85;21189;-71
2021/09/05 01:56:21;;;;;;;;;;;;;;;2.98;100.00;99848.45;1687445;84;21020;-71
2021/09/05 01:58:57;;;;;;;7.10;5.92;;;;;;;2.90;100.00;99850.77;1665814;84;20125;-70
2021/09/05 02:01:42;;;;;;;9.53;6.50;;;;;;;2.88;100.00;99857.28;1700896;84;21136;-71
2021/09/05 02:04:20;;;;;;;9.53;6.83;;;;;;;2.85;100.00;99851.05;1700916;84;21581;-71
2021/09/05 02:06:56;;;;;;;9.78;7.28;;;;;;;2.75;100.00;99853.54;1700982;84;21099;-71
2021/09/05 02:09:36;;;;;;;8.15;6.62;;;;;;;2.71;100.00;99859.42;1700852;84;21042;-72
2021/09/05 02:12:08;;;;;;;9.88;7.20;;;;;;;2.68;100.00;99860.63;1700861;84;21494;-72
2021/09/05 02:14:37;;;;;;;10.98;8.10;;;;;;;2.64;100.00;99863.86;1698551;84;21150;-71
2021/09/05 02:17:24;;;;;;;17.42;11.33;;;;;;;2.54;100.00;99858.91;1744323;80;20937;-71
2021/09/05 02:19:54;;;;;;;15.30;9.73;;;;;;;2.52;100.00;99860.92;1773392;80;20913;-71
2021/09/05 02:22:26;;;;;;;13.68;9.85;;;;;;;2.54;100.00;99866.34;1742365;79;20964;-70
2021/09/05 02:24:54;;;;;;;16.75;10.10;;;;;;;2.56;100.00;99863.52;1738758;80;27084;-71
2021/09/05 02:27:39;;;;;;;12.80;9.38;;;;;;;2.62;100.00;99862.75;1788576;79;21128;-71
2021/09/05 02:30:19;;;;;;;18.67;10.05;;;;;;;2.65;100.00;99861.03;1788137;78;21036;-70
2021/09/05 02:32:48;;;;;;;12.80;8.85;;;;;;;2.65;100.00;99862.36;1784436;79;20857;-71
2021/09/05 02:35:22;;;;;;;19.67;11.83;;;;;;;2.57;100.00;99864.66;1786232;79;21032;-71
2021/09/05 02:37:51;;;;;;;13.15;9.85;;;;;;;2.48;100.00;99865.80;1808439;79;20945;-72
2021/09/05 02:40:23;;;;;;;13.45;9.58;;;;;;;2.41;100.00;99864.94;1810376;78;21144;-71
2021/09/05 02:42:56;;;;;;;13.62;8.90;;;;;;;2.38;100.00;99869.30;1809216;78;21023;-70
2021/09/05 02:45:41;;;;;;;14.78;8.85;;;;;;;2.35;100.00;99871.84;1716183;83;21019;-72
2021/09/05 02:48:10;;;;;;;;;;;;;;;2.27;100.00;99867.17;1718576;83;21162;-72
2021/09/05 02:50:42;;;;;;;11.28;8.63;;;;;;;2.20;100.00;99869.75;1712996;83;20177;-72
2021/09/05 02:53:28;;;;;;;13.48;8.25;;;;;;;2.20;100.00;99871.08;1716395;83;22341;-71
2021/09/05 02:56:14;;;;;;;9.83;7.72;;;;;;;2.22;100.00;99878.84;1716202;83;20960;-70
2021/09/05 02:58:49;;;;;;;13.50;8.30;;;;;;;2.21;100.00;99878.55;1712506;83;20981;-73
2021/09/05 03:01:17;;;;;;;20.37;8.45;;;;;;;2.13;100.00;99879.47;1716256;83;20968;-72
2021/09/05 03:03:52;;;;;;;15.28;9.13;;;;;;;2.04;100.00;99877.98;1704918;83;21020;-73
2021/09/05 03:06:38;;;;;;;12.88;8.45;;;;;;;1.94;100.00;99879.63;1716413;83;21894;-73
2021/09/05 03:09:16;;;;;;;10.70;7.87;;;;;;;1.89;100.00;99885.48;1694833;83;21636;-71
2021/09/05 03:11:50;;;;;;;8.83;7.42;;;;;;;1.87;100.00;99882.72;1720836;83;21076;-71
2021/09/05 03:14:19;;;;;;;;;;;;;;;1.88;100.00;99887.80;1721568;83;21154;-72
2021/09/05 03:16:59;;;;;;;11.05;7.00;;;;;;;1.92;100.00;99892.23;1656309;86;20093;-71
2021/09/05 03:19:29;;;;;;;8.70;6.65;;;;;;;1.93;100.00;99887.24;1654496;86;21221;-70
2021/09/05 03:22:01;;;;;;;7.00;6.30;;;;;;;1.95;100.00;99892.36;1653694;81;21011;-69
2021/09/05 03:24:46;;;;;;;7.90;6.55;;;;;;;2.00;100.00;99891.28;1700476;83;21104;-70
2021/09/05 03:27:20;;;;;;;9.55;7.35;;;;;;;2.10;100.00;99890.45;1676589;83;21592;-70
2021/09/05 03:29:55;;;;;;;9.15;7.80;;;;;;;2.11;100.00;99887.63;1685808;83;20935;-69
2021/09/05 03:32:30;;;;;;;10.45;7.92;;;;;;;2.12;100.00;99894.55;1716248;83;21363;-70
2021/09/05 03:35:11;;;;;;;13.65;7.95;;;;;;;2.17;100.00;99901.11;1641877;87;21050;-72
2021/09/05 03:37:57;;;;;;;9.83;7.15;;;;;;;2.21;100.00;99902.38;1612549;89;21019;-70
2021/09/05 03:40:42;;;;;;;8.98;7.78;;;;;;;2.23;100.00;99904.31;1612146;88;21007;-72
2021/09/05 03:43:29;;;;;;;14.43;7.87;;;;;;;2.27;100.00;99905.58;1612445;88;20892;-70
2021/09/05 03:46:07;;;;;;;9.98;7.33;;;;;;;2.30;100.00;99907.36;1615823;88;21160;-73
2021/09/05 03:48:52;;;;;;;9.60;7.40;;;;;;;2.34;100.00;99908.59;1612714;88;21047;-71
2021/09/05 03:51:22;;;;;;;9.30;6.15;;;;;;;2.42;100.00;99916.91;1612385;89;21023;-71
2021/09/05 03:53:51;;;;;;;10.32;7.40;;;;;;;2.51;100.00;99920.25;1634852;87;20913;-69
2021/09/05 03:56:20;;;;;;;;;;;;;;;2.53;100.00;99929.64;1641148;87;21112;-69
2021/09/05 03:58:48;;;;;;;10.60;6.25;;;;;;;2.58;100.00;99929.06;1638890;87;21094;-72
2021/09/05 04:01:17;;;;;;;13.93;6.80;;;;;;;2.67;100.00;99926.59;1638594;87;21005;-70
2021/09/05 04:03:46;;;;;;;9.85;6.42;;;;;;;2.80;100.00;99925.86;1639083;87;20914;-69
2021/09/05 04:06:14;;;;;;;19.95;7.83;;;;;;;2.92;100.00;99932.78;1640882;87;21057;-69
2021/09/05 04:08:46;;;;;;;24.18;7.50;;;;;;;3.05;100.00;99937.33;1650069;86;21634;-70
2021/09/05 04:11:13;;;;;;;28.80;7.17;;;;;;;3.16;100.00;99933.63;1745987;79;21123;-70
2021/09/05 04:13:40;;;;;;;28.10;8.05;;;;;;;3.30;100.00;99938.99;1816469;79;20988;-71
2021/09/05 04:16:07;;;;;;;21.48;6.78;;;;;;;3.48;100.00;99935.80;1816615;79;20912;-71
2021/09/05 04:18:35;;;;;;;22.07;7.45;;;;;;;3.64;100.00;99936.27;1775277;80;21444;-70
2021/09/05 04:21:03;;;;;;;12.68;6.35;;;;;;;3.79;100.00;99937.44;1816635;78;20967;-72
2021/09/05 04:23:30;;;;;;;9.25;5.53;;;;;;;3.95;100.00;99946.09;1816645;79;21404;-71
2021/09/05 04:25:57;;;;;;;15.80;6.08;;;;;;;4.09;100.00;99943.73;1816479;79;20999;-71
2021/09/05 04:28:23;;;;;;;9.50;5.40;;;;;;;4.25;100.00;99947.35;1816575;79;20932;-71
2021/09/05 04:30:52;;;;;;;17.25;6.42;;;;;;;4.44;100.00;99950.24;1747603;80;20983;-70
2021/09/05 04:33:18;;;;;;;9.33;5.47;;;;;;;4.62;100.00;99952.28;1816628;79;20951;-71
2021/09/05 04:35:45;;;;;;;6.35;5.05;;;;;;;4.81;100.00;99951.97;1816611;79;21536;-71
2021/09/05 04:38:14;;;;;;;8.05;5.10;;;;;;;5.00;100.00;99957.78;1811814;79;21008;-72
2021/09/05 04:40:41;;;;;;;12.80;6.58;;;;;;;5.24;100.00;99962.95;1796042;79;20936;-72
2021/09/05 04:43:08;;;;;;;10.63;6.97;;;;;;;5.46;100.00;99965.33;1794677;79;20931;-72
2021/09/05 04:45:35;;;;;;;23.00;8.63;;;;;;;5.66;100.00;99970.58;1775115;80;20841;-72
2021/09/05 04:48:02;;;;;;;21.00;9.90;;;;;;;5.85;100.00;99972.86;1816517;79;21507;-71
2021/09/05 04:50:28;;;;;;;26.80;11.88;;;;;;;6.03;100.00;99976.16;1775411;80;20829;-72
2021/09/05 04:52:55;;;;;;;30.85;11.90;;;;;;;6.23;100.00;99976.89;1774974;80;20964;-71
2021/09/05 04:55:22;;;;;;;25.70;11.93;;;;;;;6.43;100.00;99980.23;1816568;79;21012;-72
2021/09/05 04:57:48;;;;;;;21.30;11.53;;;;;;;6.63;100.00;99980.08;1816584;79;21031;-70
2021/09/05 05:00:17;;;;;;;16.93;9.40;;;;;;;6.86;100.00;99985.35;1816687;79;20995;-72
2021/09/05 05:02:44;;;;;;;15.90;6.83;;;;;;;7.08;100.00;99982.58;1816668;79;20960;-72
2021/09/05 05:05:15;;;;;;;9.80;6.70;;;;;;;7.28;100.00;99986.91;1816893;79;21032;-70
2021/09/05 05:07:42;;;;;;;6.72;4.78;;;;;;;7.57;100.00;99987.19;1816800;79;21034;-72
2021/09/05 05:10:09;;;;;;;11.65;5.45;;;;;;;7.82;100.00;99986.58;1767728;80;20877;-70
2021/09/05 05:12:38;;;;;;;7.62;5.15;;;;;;;8.08;100.00;99989.94;1767095;81;20921;-70
2021/09/05 05:15:10;;;;;;;10.93;4.70;;;;;;;8.30;100.00;99995.07;1767215;81;20985;-70
2021/09/05 05:17:38;;;;;;;5.62;4.00;;;;;;;8.40;100.00;99999.90;1750197;81;20928;-70
2021/09/05 05:20:11;;;;;;;5.97;3.80;;;;;;;8.52;100.00;100001.27;1767203;81;21027;-71
2021/09/05 05:22:39;;;;;;;6.45;4.55;;;;;;;8.65;100.00;99997.57;1767168;81;20979;-71
2021/09/05 05:25:08;;;;;;;5.80;3.80;;;;;;;8.89;100.00;99997.09;1767508;81;21096;-71
2021/09/05 05:27:34;;;;;;;5.72;3.80;;;;;;;9.07;100.00;99997.52;1767032;81;20964;-71
2021/09/05 05:30:10;;;;;;;8.18;3.60;;;;;;;9.34;100.00;100005.36;1750151;81;20979;-71
2021/09/05 05:32:40;;;;;;;7.28;4.12;;;;;;;9.60;100.00;100005.90;1767248;81;20948;-71
2021/09/05 05:35:10;;;;;;;8.55;4.15;;;;;;;9.79;100.00;100006.03;1767392;81;21095;-72
2021/09/05 05:37:39;;;;;;;6.58;4.35;;;;;;;10.10;100.00;100012.00;1767033;81;21003;-72
2021/09/05 05:40:12;;;;;;;4.60;3.35;;;;;;;10.41;100.00;100014.77;1749802;81;20834;-70
2021/09/05 05:42:38;;;;;;;7.53;3.92;;;;;;;10.70;100.00;100011.48;1767088;81;20989;-71
2021/09/05 05:45:07;;;;;;;7.33;3.20;;;;;;;10.84;100.00;100016.01;1767330;81;20890;-72
2021/09/05 05:47:34;;;;;;;4.83;3.40;;;;;;;10.96;100.00;100025.88;1748243;81;21487;-71
2021/09/05 05:50:01;;;;;;;12.25;8.80;;;;;;;11.10;100.00;100026.63;1737075;81;21147;-70
2021/09/05 05:52:28;;;;;;;9.68;4.80;;;;;;;11.30;100.00;100019.94;1741465;81;20913;-71
2021/09/05 05:54:55;;;;;;;11.83;9.35;;;;;;;11.78;100.00;100022.44;1731114;81;20903;-71
2021/09/05 05:57:21;;;;;;;9.63;4.35;;;;;;;12.15;100.00;100028.55;1709947;82;21553;-68
2021/09/05 05:59:50;;;;;;;10.90;4.53;;;;;;;12.32;100.00;100030.64;1712403;82;21648;-68
2021/09/05 06:02:18;;;;;;;7.87;3.75;;;;;;;12.27;100.00;100022.48;1718140;81;21126;-71
2021/09/05 06:04:45;;;;;;;5.45;4.40;;;;;;;12.40;100.00;100029.38;1684533;83;20927;-70
2021/09/05 06:07:12;;;;;;;6.20;4.23;;;;;;;12.72;100.00;100032.63;1713277;82;21071;-70
2021/09/05 06:09:43;;;;;;;7.53;3.77;;;;;;;12.79;100.00;100035.93;1706948;82;20967;-71
2021/09/05 06:12:10;;;;;;;5.87;3.87;;;;;;;12.94;100.00;100041.44;1717385;82;21098;-72
2021/09/05 06:14:38;;;;;;;8.98;5.03;;;;;;;13.21;100.00;100044.06;1715666;82;21111;-71
2021/09/05 06:17:06;;;;;;;6.22;2.92;;;;;;;13.37;100.00;100039.59;1712473;82;20940;-72
2021/09/05 06:19:35;;;;;;;4.28;2.50;;;;;;;13.53;97.22;100053.20;1706488;82;21023;-70
2021/09/05 06:22:03;;;;;;;5.62;2.05;;;;;;;13.37;93.90;100055.77;1709195;82;21000;-71
2021/09/05 06:24:30;;;;;;;4.67;2.62;;;;;;;13.62;94.65;100057.84;1717446;82;20948;-70
2021/09/05 06:26:57;;;;;;;5.58;2.90;;;;;;;13.76;90.50;100054.11;1714658;82;21124;-71
2021/09/05 06:29:24;;;;;;;6.30;2.55;;;;;;;13.65;90.69;100061.89;1717565;82;20948;-71
2021/09/05 06:31:51;;;;;;;7.97;2.70;;;;;;;13.93;85.32;100066.87;1715644;81;21612;-71
2021/09/05 06:34:18;;;;;;;4.03;2.42;;;;;;;14.17;85.38;100068.33;1717515;83;21016;-71
2021/09/05 06:36:44;;;;;;;6.20;3.25;;;;;;;14.43;86.62;100075.94;1708220;81;21488;-71
2021/09/05 06:39:11;;;;;;;9.15;2.55;;;;;;;14.77;83.78;100072.25;1706382;82;21160;-69
2021/09/05 06:41:37;;;;;;;3.20;2.12;;;;;;;14.99;79.69;100078.23;1715750;81;21015;-70
2021/09/05 06:44:04;;;;;;;3.87;2.10;;;;;;;14.78;79.51;100082.80;1732531;82;20986;-69
2021/09/05 06:46:30;;;;;;;3.17;2.00;;;;;;;14.86;76.68;100080.11;1746888;82;21592;-69
2021/09/05 06:48:58;;;;;;;2.37;2.02;;;;;;;15.09;77.01;100078.78;1737116;82;21008;-71
2021/09/05 06:51:25;;;;;;;3.63;2.17;;;;;;;15.32;75.65;100083.36;1761428;81;21627;-70
2021/09/05 06:53:52;;;;;;;4.53;2.55;;;;;;;15.49;77.09;100088.48;1734094;81;21038;-70
2021/09/05 06:56:19;;;;;;;3.57;2.00;;;;;;;15.58;73.04;100083.59;1737911;81;20935;-70
2021/09/05 06:58:49;;;;;;;7.87;2.30;;;;;;;15.61;70.83;100089.80;1725179;83;20951;-71
2021/09/05 07:01:17;;;;;;;5.33;2.33;;;;;;;15.67;69.18;100093.30;1724768;83;21038;-69
2021/09/05 07:03:43;;;;;;;1.65;1.55;;;;;;;15.60;67.53;100096.28;1734870;81;21175;-70
2021/09/05 07:06:10;;;;;;;2.80;2.10;;;;;;;15.72;66.02;100096.56;1730320;81;20964;-70
2021/09/05 07:08:37;;;;;;;2.33;2.08;;;;;;;15.55;67.00;100104.41;1717714;83;21535;-72
2021/09/05 07:11:04;;;;;;;7.10;2.05;;;;;;;15.56;66.87;100099.83;1732844;82;20895;-70
2021/09/05 07:13:31;;;;;;;3.75;1.70;;;;;;;15.72;68.75;100108.75;1767056;81;21013;-69
2021/09/05 07:15:58;;;;;;;2.85;2.02;;;;;;;16.15;65.82;100115.94;1767136;81;21511;-72
2021/09/05 07:18:25;;;;;;;4.83;2.08;;;;;;;16.25;65.57;100111.83;1767178;81;21044;-70
2021/09/05 07:20:52;;;;;;;5.10;2.10;;;;;;;16.21;63.90;100114.81;1779715;79;20971;-71
2021/09/05 07:23:19;;;;;;;2.40;1.80;;;;;;;16.52;65.40;100109.27;1784666;80;21046;-70
2021/09/05 07:25:47;;;;;;;3.40;1.80;;;;;;;16.63;63.45;100110.80;1784801;80;21403;-71
2021/09/05 07:28:14;;;;;;;6.37;2.22;;;;;;;16.82;62.11;100115.86;1784786;80;21093;-70
2021/09/05 07:30:42;;;;;;;3.35;1.52;;;;;;;17.04;60.63;100118.15;1784657;80;20991;-70
2021/09/05 07:33:10;;;;;;;3.87;1.40;;;;;;;16.72;59.54;100116.70;1784629;80;20955;-69
2021/09/05 07:35:37;;;;;;;2.20;1.20;;;;;;;16.54;60.03;100116.57;1784849;80;20971;-70
2021/09/05 07:38:05;;;;;;;3.50;1.72;;;;;;;16.53;58.92;100114.38;1784576;79;21019;-68
2021/09/05 07:40:32;;;;;;;8.08;1.32;;;;;;;16.60;57.72;100119.50;1784880;80;21132;-69
2021/09/05 07:42:59;;;;;;;5.08;2.33;;;;;;;16.50;58.96;100113.04;1756912;80;20888;-71
2021/09/05 07:45:26;;;;;;;3.13;2.03;;;;;;;16.65;57.81;100119.47;1785327;80;21550;-71
2021/09/05 07:47:52;;;;;;;3.22;1.45;;;;;;;16.84;55.81;100118.30;1784941;80;20975;-71
2021/09/05 07:50:19;;;;;;;2.72;1.30;;;;;;;16.45;56.08;100123.11;1785036;80;21053;-70
2021/09/05 07:52:45;;;;;;;11.25;1.30;;;;;;;16.58;55.46;100126.55;1784730;80;21185;-70
2021/09/05 07:55:12;;;;;;;3.80;1.55;;;;;;;17.00;55.42;100117.64;1784809;80;21000;-69
2021/09/05 07:57:39;;;;;;;1.90;1.42;;;;;;;17.04;51.54;100121.41;1777894;78;21046;-72
2021/09/05 08:00:08;;;;;;;2.98;1.20;;;;;;;17.47;53.40;100119.70;1785047;80;21049;-72
2021/09/05 08:02:40;;;;;;;2.67;1.32;;;;;;;17.09;49.86;100111.33;1796683;79;20972;-71
2021/09/05 08:05:10;;;;;;;1.87;1.37;;;;;;;16.74;53.85;100121.86;1783670;79;21955;-71
2021/09/05 08:07:40;;;;;;;1.45;1.30;;;;;;;16.74;52.38;100115.08;1768172;79;20927;-70
2021/09/05 08:10:13;;;;;;;2.30;1.45;;;;;;;16.97;49.56;100114.95;1767854;79;20963;-68
2021/09/05 08:12:40;;;;;;;2.83;1.45;;;;;;;17.03;50.53;100121.16;1736493;80;21404;-72
2021/09/05 08:15:08;;;;;;;1.82;1.32;;;;;;;17.01;48.58;100118.72;1742358;80;20990;-72
2021/09/05 08:17:35;;;;;;;1.77;1.37;;;;;;;17.14;47.28;100115.91;1744709;81;21124;-68
2021/09/05 08:20:03;;;;;;;6.20;1.30;;;;;;;17.24;47.72;100123.16;1732188;81;20925;-68
2021/09/05 08:22:30;;;;;;;;;;;;;;;17.72;46.70;100125.98;1745787;82;20992;-71
2021/09/05 08:24:56;;;;;;;2.05;1.40;;;;;;;18.13;46.83;100127.73;1759921;80;20156;-65
2021/09/05 08:27:24;;;;;;;1.10;1.00;;;;;;;18.30;44.96;100138.13;1723951;81;21040;-70
2021/09/05 08:29:51;;;;;;;1.35;1.25;;;;;;;17.69;44.84;100136.86;1753532;80;21212;-71
2021/09/05 08:32:18;;;;;;;3.17;1.10;;;;;;;16.98;45.77;100132.02;1725236;81;21014;-69
2021/09/05 08:34:45;;;;;;;2.67;1.42;;;;;;;17.06;48.48;100122.75;1743543;82;20947;-70
2021/09/05 08:37:13;;;;;;;1.60;1.40;;;;;;;17.56;47.70;100134.80;1743349;80;21045;-67
2021/09/05 08:39:40;;;;;;;2.10;1.25;;;;;;;17.77;45.32;100140.85;1744177;80;20915;-69
2021/09/05 08:42:07;;;;;;;;;;;;;;;17.33;47.00;100130.95;1754736;80;21143;-71
2021/09/05 08:44:34;;;;;;;1.77;1.42;;;;;;;17.11;47.64;100132.20;1713952;83;20100;-70
2021/09/05 08:47:05;;;;;;;2.45;1.20;;;;;;;17.62;46.93;100140.45;1740087;80;20974;-70
2021/09/05 08:49:33;;;;;;;1.50;1.30;;;;;;;17.87;45.42;100123.13;1707230;82;21495;-70
2021/09/05 08:52:00;;;;;;;;;;;;;;;18.00;46.29;100136.55;1692244;85;21568;-70
2021/09/05 08:54:29;;;;;;;2.67;1.42;;;;;;;17.68;46.91;100138.50;1689836;84;22341;-72
2021/09/05 08:56:59;;;;;;;2.40;1.20;;;;;;;16.84;45.40;100138.64;1660286;85;21506;-69
2021/09/05 08:59:29;;;;;;;3.15;1.70;;;;;;;16.29;47.00;100144.86;1679506;84;21009;-69
2021/09/05 09:02:02;;;;;;;2.37;1.30;;;;;;;15.83;48.88;100136.06;1646803;86;21089;-71
2021/09/05 09:04:37;;;;;;;1.40;1.27;;;;;;;15.70;49.95;100136.06;1654830;86;20911;-66
2021/09/05 09:07:15;;;;;;;4.85;1.55;;;;;;;16.52;46.99;100122.81;1654850;86;21144;-70
2021/09/05 09:09:54;;;;;;;2.37;1.70;;;;;;;17.47;45.98;100141.97;1676909;83;21046;-70
2021/09/05 09:12:44;;;;;;;1.60;1.32;;;;;;;18.00;45.58;100134.64;1712859;83;21073;-69
2021/09/05 09:15:32;;;;;;;3.17;1.60;;;;;;;17.36;45.83;100140.67;1726806;82;21023;-71
2021/09/05 09:18:02;;;;;;;2.10;1.60;;;;;;;16.45;45.07;100134.75;1717172;82;21578;-69
2021/09/05 09:20:40;;;;;;;2.25;1.42;;;;;;;15.75;46.80;100140.66;1717110;82;21134;-68
2021/09/05 09:23:18;;;;;;;2.58;1.57;;;;;;;15.33;47.35;100139.86;1710199;83;21531;-68
2021/09/05 09:25:57;;;;;;;3.35;2.50;;;;;;;15.13;50.82;100139.32;1702290;83;20953;-72
2021/09/05 09:28:47;;;;;;;3.52;2.35;;;;;;;15.16;52.15;100138.80;1715676;83;21567;-70
2021/09/05 09:31:22;;;;;;;13.93;3.60;;;;;;;15.33;52.26;100147.98;1716407;81;21059;-70
2021/09/05 09:33:54;;;;;;;6.33;3.30;;;;;;;15.44;52.60;100142.84;1711675;83;21139;-71
2021/09/05 09:36:28;;;;;;;6.05;3.15;;;;;;;15.44;54.08;100139.34;1719087;82;21024;-70
2021/09/05 09:39:05;;;;;;;2.98;2.20;;;;;;;15.28;52.70;100144.47;1736107;82;21008;-72
2021/09/05 09:41:41;;;;;;;5.42;2.60;;;;;;;15.16;54.83;100150.14;1699707;82;21096;-72
2021/09/05 09:44:08;;;;;;;3.83;2.72;;;;;;;14.97;55.20;100133.11;1711285;82;21490;-71
2021/09/05 09:46:37;;;;;;;4.03;3.50;;;;;;;14.87;57.31;100146.61;1679808;85;21874;-73
2021/09/05 09:49:12;;;;;;;4.25;2.33;;;;;;;14.95;58.83;100150.13;1680944;85;21048;-70
2021/09/05 09:51:40;;;;;;;2.50;2.30;;;;;;;14.97;56.74;100149.87;1701791;82;21304;-72
2021/09/05 09:54:08;;;;;;;3.75;2.70;;;;;;;15.14;56.55;100150.42;1745127;82;21040;-70
2021/09/05 09:56:36;;;;;;;3.95;3.10;;;;;;;15.56;55.69;100153.39;1743019;82;20937;-69
2021/09/05 09:59:07;;;;;;;4.42;2.58;;;;;;;15.82;54.97;100156.08;1720718;83;21117;-71
2021/09/05 10:01:34;;;;;;;3.75;1.87;;;;;;;15.65;53.26;100159.89;1719707;82;20936;-69
2021/09/05 10:04:02;;;;;;;2.50;2.10;;;;;;;15.37;54.96;100162.59;1719294;82;21140;-69
2021/09/05 10:06:32;;;;;;;9.85;2.58;;;;;;;15.11;54.81;100162.30;1717712;83;20948;-70
2021/09/05 10:09:06;;;;;;;6.20;3.75;;;;;;;15.07;57.37;100169.34;1717487;83;20984;-68
2021/09/05 10:11:35;;;;;;;3.25;2.60;;;;;;;14.93;55.61;100174.45;1717466;83;21139;-72
2021/09/05 10:14:02;;;;;;;4.37;2.25;;;;;;;14.72;56.39;100176.27;1718164;83;20912;-70
2021/09/05 10:16:34;;;;;;;2.52;1.87;;;;;;;14.58;58.04;100177.33;1719593;82;20928;-70
2021/09/05 10:19:05;;;;;;;4.83;2.20;;;;;;;14.34;56.03;100173.69;1710801;83;20996;-69
2021/09/05 10:21:34;;;;;;;;;;;;;;;14.11;58.12;100164.14;1721991;83;21083;-70
2021/09/05 10:24:01;;;;;;;4.05;3.52;;;;;;;14.05;57.33;100163.82;1721209;83;21928;-70
2021/09/05 10:26:30;;;;;;;;;;;;;;;14.05;58.52;100161.66;1732103;81;20912;-69
2021/09/05 10:29:01;;;;;;;5.97;2.12;;;;;;;14.09;56.84;100160.88;1721866;82;20135;-70
2021/09/05 10:31:34;;;;;;;2.30;1.80;;;;;;;14.92;55.54;100153.89;1734060;82;20913;-72
2021/09/05 10:34:03;;;;;;;3.58;1.60;;;;;;;16.02;52.48;100156.58;1722434;83;20963;-69
2021/09/05 10:36:33;;;;;;;2.30;2.00;;;;;;;17.20;49.41;100156.00;1725005;81;21586;-70
2021/09/05 10:39:08;;;;;;;4.30;1.92;;;;;;;18.00;45.42;100165.07;1721142;83;20947;-69
2021/09/05 10:41:50;;;;;;;2.70;1.30;;;;;;;18.56;45.02;100168.48;1720183;83;21039;-71
2021/09/05 10:44:18;;;;;;;5.10;2.12;;;;;;;18.82;41.16;100173.63;1725119;83;20966;-70
2021/09/05 10:46:50;;;;;;;4.60;2.40;;;;;;;18.15;43.53;100162.20;1724886;83;21027;-71
2021/09/05 10:49:19;;;;;;;1.90;1.20;;;;;;;17.80;44.16;100159.31;1725120;81;21135;-71
2021/09/05 10:51:50;;;;;;;4.75;1.62;;;;;;;17.35;44.20;100157.25;1696210;83;21093;-73
2021/09/05 10:54:28;;;;;;;2.10;1.40;;;;;;;16.86;45.39;100154.09;1724804;83;20999;-71
2021/09/05 10:57:09;;;;;;;3.67;1.80;;;;;;;16.20;48.45;100149.22;1723153;82;21051;-72
2021/09/05 10:59:38;;;;;;;3.00;1.25;;;;;;;15.86;49.24;100155.81;1752415;81;20925;-64
2021/09/05 11:02:04;;;;;;;5.97;1.60;;;;;;;15.51;49.53;100160.71;1752698;82;21134;-64
2021/09/05 11:04:44;;;;;;;3.33;1.90;;;;;;;15.25;51.84;100158.54;1752558;82;20865;-63
2021/09/05 11:07:15;;;;;;;3.42;1.90;;;;;;;15.10;54.07;100160.14;1751311;81;21430;-63
2021/09/05 11:09:43;;;;;;;2.10;1.80;;;;;;;14.80;54.99;100156.86;1723064;82;20832;-64
2021/09/05 11:12:34;;;;;;;3.45;2.27;;;;;;;14.67;58.75;100164.11;1729006;82;20988;-63
2021/09/05 11:15:11;;;;;;;3.77;2.40;;;;;;;14.41;61.75;100154.55;1724300;82;21286;-63
2021/09/05 11:17:41;;;;;;;3.62;2.20;;;;;;;14.24;67.87;100153.94;1721971;82;20913;-63
2021/09/05 11:20:13;;;;;;;5.62;3.98;;;;;;;14.23;67.76;100153.10;1707943;82;20996;-63
2021/09/05 11:22:44;;;;;;;3.87;3.27;;;;;;;14.13;67.74;100149.01;1778292;80;20869;-63
2021/09/05 11:25:26;;;;;;;5.17;2.75;;;;;;;14.14;70.25;100150.66;1789037;79;20948;-64
2021/09/05 11:28:08;;;;;;;5.33;4.05;;;;;;;14.17;72.12;100151.47;1804396;79;21156;-63
2021/09/05 11:30:44;;;;;;;7.33;4.58;;;;;;;14.26;73.60;100147.74;1806752;79;20948;-62
2021/09/05 11:33:11;;;;;;;7.47;3.60;;;;;;;14.36;74.86;100146.43;1801065;79;20916;-63
2021/09/05 11:35:47;;;;;;;4.95;3.47;;;;;;;14.34;69.97;100143.98;1778506;80;20944;-65
2021/09/05 11:38:18;;;;;;;3.98;2.60;;;;;;;14.32;66.13;100143.97;1778710;80;20909;-64
2021/09/05 11:40:54;;;;;;;8.18;4.33;;;;;;;14.29;66.10;100149.36;1789215;78;21136;-64
2021/09/05 11:43:38;;;;;;;10.35;7.72;;;;;;;14.39;65.38;100153.19;1803886;78;20886;-64
2021/09/05 11:46:16;;;;;;;6.70;5.60;;;;;;;14.45;64.95;100150.22;1801381;79;20893;-65
2021/09/05 11:48:55;;;;;;;32.60;17.45;;;;;;;14.64;65.29;100154.64;1779355;79;20838;-65